createdAt,value
2019-06-08T00:00:25.328Z,24.33
2019-06-08T00:03:03.118Z,25.48
2019-06-08T00:05:40.964Z,25.00
2019-06-08T00:08:19.260Z,24.12
2019-06-08T00:10:58.911Z,25.95
2019-06-08T00:13:37.945Z,26.35
2019-06-08T00:16:17.392Z,26.45
2019-06-08T00:18:58.050Z,26.13
2019-06-08T00:21:43.017Z,27.23
2019-06-08T00:24:31.244Z,26.73
2019-06-08T00:27:10.754Z,25.87
2019-06-08T00:29:54.852Z,25.30
2019-06-08T00:32:53.085Z,24.80
2019-06-08T00:35:30.728Z,25.30
2019-06-08T00:38:12.547Z,23.87
2019-06-08T00:40:50.430Z,24.67
2019-06-08T00:43:28.993Z,25.80
2019-06-08T00:46:07.619Z,27.02
2019-06-08T00:48:49.282Z,25.70
2019-06-08T00:51:30.267Z,25.93
2019-06-08T00:54:12.923Z,26.90
2019-06-08T00:56:55.938Z,27.60
2019-06-08T00:59:33.610Z,28.30
2019-06-08T01:02:30.585Z,30.10
2019-06-08T01:05:15.297Z,26.50
2019-06-08T01:07:52.827Z,27.80
2019-06-08T01:10:35.870Z,28.17
2019-06-08T01:13:13.162Z,31.33
2019-06-08T01:15:57.459Z,28.93
2019-06-08T01:18:42.827Z,32.53
2019-06-08T01:21:30.097Z,31.40
2019-06-08T01:24:10.672Z,29.63
2019-06-08T01:26:54.704Z,29.07
2019-06-08T01:29:32.639Z,28.70
2019-06-08T01:32:14.111Z,26.80
2019-06-08T01:34:52.543Z,27.47
2019-06-08T01:37:31.386Z,28.63
2019-06-08T01:40:11.858Z,28.83
2019-06-08T01:42:53.006Z,28.00
2019-06-08T01:45:32.875Z,27.40
2019-06-08T01:48:20.140Z,27.27
2019-06-08T01:50:51.683Z,27.53
2019-06-08T01:53:43.502Z,25.90
2019-06-08T01:56:36.944Z,24.40
2019-06-08T01:59:18.412Z,23.83
2019-06-08T02:01:57.378Z,24.57
2019-06-08T02:04:35.556Z,24.73
2019-06-08T02:07:17.947Z,27.30
2019-06-08T02:09:57.424Z,26.10
2019-06-08T02:12:35.939Z,29.40
2019-06-08T02:15:13.920Z,25.80
2019-06-08T02:17:52.579Z,26.03
2019-06-08T02:20:31.383Z,26.77
2019-06-08T02:23:09.192Z,27.47
2019-06-08T02:25:51.092Z,30.50
2019-06-08T02:28:31.814Z,27.70
2019-06-08T02:31:13.355Z,27.30
2019-06-08T02:33:54.375Z,27.10
2019-06-08T02:39:57.752Z,26.10
2019-06-08T02:42:40.215Z,25.30
2019-06-08T02:45:32.141Z,25.27
2019-06-08T02:48:12.911Z,25.83
2019-06-08T02:50:55.091Z,26.63
2019-06-08T02:53:34.135Z,28.03
2019-06-08T02:56:14.820Z,27.50
2019-06-08T02:58:52.741Z,29.27
2019-06-08T03:01:38.869Z,27.83
2019-06-08T03:04:16.979Z,26.03
2019-06-08T03:07:02.109Z,24.53
2019-06-08T03:09:41.394Z,26.80
2019-06-08T03:12:19.980Z,29.50
2019-06-08T03:15:02.596Z,26.60
2019-06-08T03:17:41.887Z,27.37
2019-06-08T03:20:20.075Z,27.07
2019-06-08T03:22:58.307Z,25.97
2019-06-08T03:25:52.774Z,26.43
2019-06-08T03:28:26.692Z,27.23
2019-06-08T03:31:08.719Z,23.93
2019-06-08T03:33:55.678Z,24.37
2019-06-08T03:36:51.601Z,23.53
2019-06-08T03:39:27.977Z,27.37
2019-06-08T03:42:05.937Z,25.13
2019-06-08T03:44:49.176Z,26.63
2019-06-08T03:47:41.315Z,28.97
2019-06-08T03:50:28.326Z,30.07
2019-06-08T03:53:07.198Z,29.00
2019-06-08T03:55:46.663Z,27.67
2019-06-08T03:58:33.968Z,29.23
2019-06-08T04:01:14.639Z,29.77
2019-06-08T04:04:08.451Z,29.43
2019-06-08T04:06:54.213Z,30.27
2019-06-08T04:09:31.644Z,28.20
2019-06-08T04:12:18.054Z,27.83
2019-06-08T04:14:59.761Z,27.97
2019-06-08T04:17:37.902Z,26.90
2019-06-08T04:20:15.554Z,26.90
2019-06-08T04:22:53.015Z,27.30
2019-06-08T04:25:38.313Z,26.83
2019-06-08T04:28:19.873Z,27.10
2019-06-08T04:31:01.757Z,29.20
2019-06-08T04:33:42.119Z,31.50
2019-06-08T04:36:48.580Z,30.93
2019-06-08T04:39:25.846Z,32.23
2019-06-08T04:42:06.359Z,31.62
2019-06-08T04:44:46.936Z,33.10
2019-06-08T04:47:31.077Z,30.07
2019-06-08T04:50:22.422Z,29.53
2019-06-08T04:52:54.917Z,32.63
2019-06-08T04:55:33.041Z,33.75
2019-06-08T04:58:12.854Z,35.63
2019-06-08T05:00:51.194Z,35.63
2019-06-08T05:03:29.633Z,36.17
2019-06-08T05:06:08.837Z,34.05
2019-06-08T05:08:47.359Z,34.67
2019-06-08T05:11:25.485Z,33.10
2019-06-08T05:14:05.613Z,29.32
2019-06-08T05:16:45.362Z,30.25
2019-06-08T05:19:23.587Z,30.73
2019-06-08T05:22:02.743Z,29.87
2019-06-08T05:24:43.497Z,31.60
2019-06-08T05:27:20.876Z,30.10
2019-06-08T05:29:58.077Z,28.90
2019-06-08T05:32:36.458Z,29.90
2019-06-08T05:35:15.870Z,27.90
2019-06-08T05:37:55.722Z,26.37
2019-06-08T05:40:53.233Z,27.15
2019-06-08T05:43:31.344Z,24.18
2019-06-08T05:46:08.548Z,24.50
2019-06-08T05:48:45.957Z,22.07
2019-06-08T05:51:23.106Z,22.73
2019-06-08T05:54:02.863Z,20.55
2019-06-08T05:56:39.803Z,20.37
2019-06-08T05:59:17.331Z,18.62
2019-06-08T06:01:56.770Z,17.05
2019-06-08T06:04:34.081Z,16.77
2019-06-08T06:07:11.853Z,16.30
2019-06-08T06:09:52.179Z,17.27
2019-06-08T06:12:29.569Z,16.60
2019-06-08T06:15:07.271Z,16.23
2019-06-08T06:17:46.711Z,15.70
2019-06-08T06:20:23.503Z,15.80
2019-06-08T06:23:01.252Z,14.13
2019-06-08T06:25:38.991Z,13.53
2019-06-08T06:28:16.135Z,14.30
2019-06-08T06:30:57.335Z,14.03
2019-06-08T06:33:35.112Z,13.03
2019-06-08T06:36:12.830Z,13.98
2019-06-08T06:38:50.548Z,12.30
2019-06-08T06:41:28.260Z,11.57
2019-06-08T06:44:06.273Z,11.43
2019-06-08T06:46:44.015Z,12.73
2019-06-08T06:49:21.688Z,11.05
2019-06-08T06:51:59.397Z,11.35
2019-06-08T06:54:37.188Z,10.53
2019-06-08T06:57:14.948Z,11.78
2019-06-08T06:59:54.027Z,11.12
2019-06-08T07:02:31.925Z,11.43
2019-06-08T07:05:09.697Z,11.10
2019-06-08T07:07:48.150Z,11.55
2019-06-08T07:10:25.984Z,11.50
2019-06-08T07:13:03.708Z,11.30
2019-06-08T07:15:42.054Z,12.80
2019-06-08T07:18:19.817Z,11.35
2019-06-08T07:20:58.585Z,11.90
2019-06-08T07:23:37.348Z,11.30
2019-06-08T07:26:15.027Z,11.15
2019-06-08T07:28:53.608Z,11.25
2019-06-08T07:31:33.500Z,10.25
2019-06-08T07:34:11.270Z,9.68
2019-06-08T07:36:51.204Z,9.68
2019-06-08T07:39:31.203Z,9.88
2019-06-08T07:42:08.909Z,8.88
2019-06-08T07:44:46.886Z,9.55
2019-06-08T07:47:24.533Z,8.53
2019-06-08T07:50:04.656Z,8.58
2019-06-08T07:52:42.006Z,8.05
2019-06-08T07:55:19.723Z,8.30
2019-06-08T07:57:57.467Z,7.70
2019-06-08T08:00:35.158Z,7.50
2019-06-08T08:03:19.880Z,7.58
2019-06-08T08:05:58.596Z,7.83
2019-06-08T08:08:36.431Z,15.40
2019-06-08T08:11:14.147Z,7.60
2019-06-08T08:13:54.757Z,6.80
2019-06-08T08:16:32.594Z,6.60
2019-06-08T08:19:10.298Z,7.78
2019-06-08T08:21:50.177Z,7.45
2019-06-08T08:24:27.338Z,5.40
2019-06-08T08:27:05.056Z,5.15
2019-06-08T08:29:42.792Z,5.58
2019-06-08T08:32:20.525Z,5.30
2019-06-08T08:35:00.340Z,5.37
2019-06-08T08:37:38.066Z,5.20
2019-06-08T08:40:17.875Z,5.22
2019-06-08T08:42:55.712Z,4.72
2019-06-08T08:45:37.206Z,5.00
2019-06-08T08:48:24.464Z,4.75
2019-06-08T08:50:54.147Z,4.33
2019-06-08T08:53:31.960Z,4.80
2019-06-08T08:56:09.733Z,3.72
2019-06-08T08:58:47.840Z,4.28
2019-06-08T09:01:28.549Z,3.60
2019-06-08T09:04:05.335Z,3.65
2019-06-08T09:06:43.154Z,4.08
2019-06-08T09:09:21.705Z,3.08
2019-06-08T09:12:02.259Z,3.00
2019-06-08T09:14:41.709Z,2.70
2019-06-08T09:17:18.405Z,2.70
2019-06-08T09:19:58.800Z,2.33
2019-06-08T09:22:52.003Z,2.98
2019-06-08T09:25:14.897Z,2.70
2019-06-08T09:27:53.342Z,3.52
2019-06-08T09:30:31.957Z,2.20
2019-06-08T09:33:18.609Z,3.15
2019-06-08T09:35:58.188Z,2.83
2019-06-08T09:38:35.292Z,1.82
2019-06-08T09:41:13.025Z,2.08
2019-06-08T09:43:50.748Z,2.22
2019-06-08T09:46:28.479Z,2.12
2019-06-08T09:49:11.010Z,2.02
2019-06-08T09:51:45.599Z,2.50
2019-06-08T09:54:23.281Z,2.40
2019-06-08T09:57:02.772Z,3.05
2019-06-08T09:59:40.236Z,1.42
2019-06-08T10:02:18.510Z,1.50
2019-06-08T10:05:00.704Z,2.00
2019-06-08T10:07:38.860Z,1.70
2019-06-08T10:10:17.990Z,1.60
2019-06-08T10:12:56.954Z,3.05
2019-06-08T10:15:35.227Z,1.82
2019-06-08T10:18:12.929Z,1.30
2019-06-08T10:20:50.688Z,3.35
2019-06-08T10:23:34.276Z,1.40
2019-06-08T10:26:08.809Z,1.40
2019-06-08T10:28:48.249Z,2.58
2019-06-08T10:31:38.311Z,1.10
2019-06-08T10:34:06.669Z,1.67
2019-06-08T10:36:44.593Z,1.50
2019-06-08T10:39:22.299Z,1.60
2019-06-08T10:42:03.159Z,2.42
2019-06-08T10:44:39.904Z,1.35
2019-06-08T10:47:17.721Z,1.10
2019-06-08T10:49:55.363Z,1.30
2019-06-08T10:52:33.067Z,1.40
2019-06-08T10:55:12.223Z,2.30
2019-06-08T10:57:50.099Z,1.57
2019-06-08T11:00:29.435Z,1.60
2019-06-08T11:03:10.047Z,1.20
2019-06-08T11:05:48.377Z,1.85
2019-06-08T11:08:27.597Z,1.30
2019-06-08T11:11:09.885Z,1.45
2019-06-08T11:13:50.192Z,1.40
2019-06-08T11:16:28.687Z,1.60
2019-06-08T11:19:12.902Z,2.15
2019-06-08T11:21:48.670Z,1.00
2019-06-08T11:24:28.784Z,1.50
2019-06-08T11:27:12.480Z,1.32
2019-06-08T11:29:50.193Z,1.22
2019-06-08T11:32:28.268Z,1.40
2019-06-08T11:35:10.640Z,1.57
2019-06-08T11:37:48.698Z,1.77
2019-06-08T11:40:27.703Z,1.80
2019-06-08T11:43:04.728Z,1.70
2019-06-08T11:45:43.193Z,2.00
2019-06-08T11:48:20.337Z,1.82
2019-06-08T11:50:58.550Z,1.95
2019-06-08T11:53:38.451Z,2.00
2019-06-08T11:56:18.246Z,2.23
2019-06-08T11:58:57.816Z,2.00
2019-06-08T12:01:34.286Z,2.35
2019-06-08T12:04:12.456Z,2.10
2019-06-08T12:06:51.183Z,2.25
2019-06-08T12:09:29.905Z,2.02
2019-06-08T12:12:13.574Z,2.30
2019-06-08T12:14:47.689Z,2.00
2019-06-08T12:17:27.159Z,2.10
2019-06-08T12:20:05.498Z,2.00
2019-06-08T12:22:44.422Z,2.27
2019-06-08T12:25:22.239Z,2.10
2019-06-08T12:28:01.022Z,2.20
2019-06-08T12:30:40.773Z,2.00
2019-06-08T12:33:19.229Z,1.80
2019-06-08T12:35:58.088Z,2.20
2019-06-08T12:38:37.918Z,2.60
2019-06-08T12:41:15.863Z,1.62
2019-06-08T12:43:55.047Z,1.90
2019-06-08T12:46:34.479Z,2.20
2019-06-08T12:49:13.217Z,2.20
2019-06-08T12:51:53.673Z,2.12
2019-06-08T12:54:31.984Z,2.05
2019-06-08T12:57:13.752Z,2.08
2019-06-08T12:59:51.095Z,1.77
2019-06-08T13:02:31.258Z,2.10
2019-06-08T13:05:12.529Z,2.25
2019-06-08T13:07:49.594Z,2.35
2019-06-08T13:10:27.733Z,2.30
2019-06-08T13:13:05.486Z,2.05
2019-06-08T13:15:43.168Z,2.40
2019-06-08T13:18:21.473Z,2.30
2019-06-08T13:21:07.553Z,2.70
2019-06-08T13:23:41.302Z,3.10
2019-06-08T13:26:24.885Z,2.67
2019-06-08T13:29:09.212Z,3.70
2019-06-08T13:31:46.736Z,2.95
2019-06-08T13:34:24.636Z,2.30
2019-06-08T13:37:02.289Z,2.65
2019-06-08T13:39:40.020Z,2.50
2019-06-08T13:42:18.513Z,2.12
2019-06-08T13:44:58.797Z,2.02
2019-06-08T13:47:40.978Z,2.30
2019-06-08T13:50:27.855Z,2.00
2019-06-08T13:52:58.733Z,2.00
2019-06-08T13:55:49.737Z,1.75
2019-06-08T13:58:20.796Z,1.90
2019-06-08T14:00:59.488Z,1.90
2019-06-08T14:03:35.399Z,1.50
2019-06-08T14:06:14.159Z,2.10
2019-06-08T14:08:52.974Z,1.60
2019-06-08T14:11:31.493Z,2.10
2019-06-08T14:14:09.279Z,2.30
2019-06-08T14:16:50.418Z,1.90
2019-06-08T14:19:31.545Z,1.75
2019-06-08T14:22:11.713Z,2.15
2019-06-08T14:24:51.287Z,1.77
2019-06-08T14:27:33.232Z,1.80
2019-06-08T14:30:09.975Z,1.52
2019-06-08T14:32:48.378Z,1.50
2019-06-08T14:35:27.173Z,1.70
2019-06-08T14:38:07.564Z,1.52
2019-06-08T14:40:47.484Z,1.77
2019-06-08T14:43:29.681Z,1.60
2019-06-08T14:46:08.059Z,1.50
2019-06-08T14:48:46.048Z,1.75
2019-06-08T14:51:28.643Z,2.30
2019-06-08T14:54:05.032Z,1.27
2019-06-08T14:56:42.687Z,1.20
2019-06-08T14:59:21.927Z,1.60
2019-06-08T15:01:59.694Z,1.30
2019-06-08T15:04:39.869Z,1.52
2019-06-08T15:07:20.152Z,1.10
2019-06-08T15:09:58.072Z,1.30
2019-06-08T15:12:38.447Z,1.15
2019-06-08T15:15:19.826Z,1.67
2019-06-08T15:17:58.255Z,1.30
2019-06-08T15:20:37.938Z,1.35
2019-06-08T15:23:19.258Z,1.42
2019-06-08T15:25:58.143Z,1.47
2019-06-08T15:28:36.260Z,1.42
2019-06-08T15:31:13.486Z,1.55
2019-06-08T15:33:51.135Z,1.40
2019-06-08T15:36:30.908Z,1.47
2019-06-08T15:39:08.287Z,1.42
2019-06-08T15:41:48.571Z,1.40
2019-06-08T15:44:26.661Z,1.52
2019-06-08T15:47:04.964Z,1.25
2019-06-08T15:49:43.308Z,1.65
2019-06-08T15:52:24.396Z,1.37
2019-06-08T15:55:02.513Z,1.70
2019-06-08T15:57:42.357Z,1.35
2019-06-08T16:00:21.256Z,1.62
2019-06-08T16:03:01.979Z,1.82
2019-06-08T16:05:39.805Z,1.15
2019-06-08T16:08:17.677Z,1.20
2019-06-08T16:10:55.482Z,1.00
2019-06-08T16:13:33.343Z,1.30
2019-06-08T16:16:11.469Z,1.22
2019-06-08T16:18:52.379Z,1.10
2019-06-08T16:21:31.642Z,1.02
2019-06-08T16:24:09.697Z,1.10
2019-06-08T16:26:53.233Z,1.22
2019-06-08T16:29:29.399Z,1.05
2019-06-08T16:32:07.296Z,1.05
2019-06-08T16:34:45.124Z,1.15
2019-06-08T16:37:22.980Z,1.10
2019-06-08T16:40:01.784Z,1.20
2019-06-08T16:42:39.734Z,1.07
2019-06-08T16:45:17.491Z,1.22
2019-06-08T16:47:55.222Z,1.20
2019-06-08T16:50:34.262Z,1.40
2019-06-08T16:53:17.875Z,1.22
2019-06-08T16:55:55.576Z,1.20
2019-06-08T16:58:34.285Z,1.40
2019-06-08T17:01:12.135Z,1.20
2019-06-08T17:03:49.840Z,1.10
2019-06-08T17:06:27.563Z,1.10
2019-06-08T17:09:07.819Z,1.05
2019-06-08T17:11:45.534Z,1.30
2019-06-08T17:14:25.123Z,1.00
2019-06-08T17:17:18.379Z,1.27
2019-06-08T17:19:56.171Z,1.02
2019-06-08T17:22:34.516Z,1.02
2019-06-08T17:25:12.307Z,1.20
2019-06-08T17:27:50.016Z,1.00
2019-06-08T17:30:27.664Z,1.10
2019-06-08T17:33:05.419Z,1.20
2019-06-08T17:35:43.068Z,1.17
2019-06-08T17:38:20.808Z,1.10
2019-06-08T17:40:58.453Z,1.10
2019-06-08T17:43:36.212Z,1.40
2019-06-08T17:46:13.937Z,1.00
2019-06-08T17:48:51.829Z,1.15
2019-06-08T17:51:29.500Z,1.37
2019-06-08T17:54:07.413Z,1.17
2019-06-08T17:56:45.062Z,1.00
2019-06-08T17:59:41.675Z,1.27
2019-06-08T18:02:27.432Z,1.10
2019-06-08T18:04:59.810Z,1.20
2019-06-08T18:07:38.998Z,1.20
2019-06-08T18:10:21.955Z,1.40
2019-06-08T18:12:59.846Z,1.60
2019-06-08T18:15:39.078Z,1.45
2019-06-08T18:18:17.835Z,1.87
2019-06-08T18:20:57.986Z,1.77
2019-06-08T18:24:12.219Z,2.37
2019-06-08T18:26:50.609Z,2.10
2019-06-08T18:29:28.963Z,2.15
2019-06-08T18:32:07.346Z,2.50
2019-06-08T18:34:48.034Z,2.60
2019-06-08T18:37:25.790Z,3.10
2019-06-08T18:40:07.237Z,1.80
2019-06-08T18:42:47.977Z,1.70
2019-06-08T18:46:00.803Z,1.85
2019-06-08T18:48:41.735Z,1.40
2019-06-08T18:51:18.078Z,2.67
2019-06-08T18:54:08.488Z,2.17
2019-06-08T18:56:38.725Z,1.60
2019-06-08T18:59:17.656Z,1.98
2019-06-08T19:01:54.768Z,2.90
2019-06-08T19:04:32.547Z,2.83
2019-06-08T19:07:13.092Z,2.37
2019-06-08T19:09:50.861Z,2.40
2019-06-08T19:12:31.571Z,2.15
2019-06-08T19:15:11.570Z,3.00
2019-06-08T19:17:54.442Z,5.10
2019-06-08T19:20:30.687Z,6.42
2019-06-08T19:23:09.093Z,5.62
2019-06-08T19:25:49.514Z,3.42
2019-06-08T19:28:36.250Z,2.83
2019-06-08T19:31:11.469Z,3.30
2019-06-08T19:33:53.494Z,3.20
2019-06-08T19:36:28.528Z,2.50
2019-06-08T19:39:08.248Z,2.55
2019-06-08T19:41:49.211Z,2.42
2019-06-08T19:44:27.622Z,2.20
2019-06-08T19:47:04.644Z,2.08
2019-06-08T19:49:44.606Z,2.00
2019-06-08T19:52:23.555Z,2.65
2019-06-08T19:55:01.617Z,2.42
2019-06-08T19:57:41.302Z,2.20
2019-06-08T20:00:28.257Z,1.87
2019-06-08T20:03:07.666Z,2.02
2019-06-08T20:05:50.109Z,1.82
2019-06-08T20:08:28.320Z,2.25
2019-06-08T20:11:08.315Z,2.40
2019-06-08T20:17:08.109Z,2.47
2019-06-08T20:19:48.054Z,2.63
2019-06-08T20:22:27.644Z,2.83
2019-06-08T20:25:10.471Z,2.85
2019-06-08T20:27:51.648Z,2.60
2019-06-08T20:30:50.596Z,3.30
2019-06-08T20:33:41.312Z,2.50
2019-06-08T20:36:18.552Z,4.00
2019-06-08T20:38:58.192Z,3.22
2019-06-08T20:41:37.713Z,4.60
2019-06-08T20:44:16.261Z,3.40
2019-06-08T20:46:57.624Z,4.03
2019-06-08T20:49:37.184Z,3.83
2019-06-08T20:52:23.666Z,3.37
2019-06-08T20:55:02.792Z,4.20
2019-06-08T20:57:45.114Z,4.93
2019-06-08T21:00:25.159Z,4.83
2019-06-08T21:03:08.208Z,6.00
2019-06-08T21:05:54.174Z,5.77
2019-06-08T21:08:31.540Z,5.87
2019-06-08T21:11:11.837Z,5.60
2019-06-08T21:14:13.573Z,5.77
2019-06-08T21:16:55.708Z,4.93
2019-06-08T21:19:37.254Z,5.40
2019-06-08T21:22:18.483Z,5.47
2019-06-08T21:25:00.027Z,4.83
2019-06-08T21:28:04.470Z,5.30
2019-06-08T21:37:28.068Z,3.23
2019-06-08T21:40:08.478Z,3.73
2019-06-08T21:42:52.138Z,3.37
2019-06-08T21:45:33.042Z,2.97
2019-06-08T21:48:21.785Z,2.80
2019-06-08T21:51:33.921Z,2.67
2019-06-08T21:54:21.398Z,3.10
2019-06-08T21:57:13.898Z,2.27
2019-06-08T22:00:40.548Z,2.80
2019-06-08T22:03:28.156Z,2.87
2019-06-08T22:06:41.435Z,2.83
2019-06-08T22:09:30.523Z,2.90
2019-06-08T22:12:17.350Z,2.70
2019-06-08T22:15:10.300Z,2.87
2019-06-08T22:18:00.133Z,2.70
2019-06-08T22:20:51.723Z,2.90
2019-06-08T22:23:40.113Z,3.20
2019-06-08T22:27:00.384Z,3.40
2019-06-08T22:29:39.507Z,3.50
2019-06-08T22:32:38.465Z,3.10
2019-06-08T22:35:40.251Z,3.60
2019-06-08T22:38:20.220Z,2.90
2019-06-08T22:41:00.700Z,2.93
2019-06-08T22:44:37.469Z,3.33
2019-06-08T22:47:58.662Z,3.33
2019-06-08T22:50:44.760Z,3.53
2019-06-08T22:53:34.854Z,3.80
2019-06-08T22:56:39.378Z,3.10
2019-06-08T23:00:20.421Z,2.70
2019-06-08T23:03:06.215Z,2.87
2019-06-08T23:06:21.133Z,2.90
2019-06-08T23:09:19.212Z,3.13
2019-06-08T23:12:22.660Z,3.00
2019-06-08T23:15:37.355Z,3.97
2019-06-08T23:18:24.979Z,3.17
2019-06-08T23:21:33.122Z,3.93
2019-06-08T23:24:38.649Z,3.70
2019-06-08T23:27:37.791Z,3.90
2019-06-08T23:30:29.610Z,3.47
2019-06-08T23:33:20.406Z,3.40
2019-06-08T23:36:39.570Z,3.67
2019-06-08T23:39:01.111Z,3.33
2019-06-08T23:42:07.951Z,3.90
2019-06-08T23:45:19.723Z,3.40
2019-06-08T23:48:27.883Z,3.50
2019-06-08T23:51:18.746Z,4.27
2019-06-08T23:54:23.921Z,4.10
